createdAt,value
2018-07-10T00:00:45.791Z,0.00
2018-07-10T00:01:52.324Z,0.00
2018-07-10T00:02:58.834Z,0.00
2018-07-10T00:04:05.349Z,0.00
2018-07-10T00:05:12.908Z,0.00
2018-07-10T00:06:18.380Z,0.00
2018-07-10T00:07:24.931Z,0.00
2018-07-10T00:08:31.426Z,0.00
2018-07-10T00:09:38.931Z,0.00
2018-07-10T00:10:44.461Z,0.00
2018-07-10T00:11:50.978Z,0.00
2018-07-10T00:12:57.491Z,0.00
2018-07-10T00:14:04.019Z,0.00
2018-07-10T00:15:10.526Z,0.00
2018-07-10T00:16:17.045Z,0.00
2018-07-10T00:17:24.566Z,0.00
2018-07-10T00:18:30.084Z,0.00
2018-07-10T00:19:36.598Z,0.00
2018-07-10T00:20:43.119Z,0.00
2018-07-10T00:21:49.651Z,0.00
2018-07-10T00:22:56.156Z,0.00
2018-07-10T00:24:02.677Z,0.00
2018-07-10T00:25:09.202Z,0.00
2018-07-10T00:26:15.719Z,0.00
2018-07-10T00:27:22.243Z,0.00
2018-07-10T00:28:28.757Z,0.00
2018-07-10T00:29:35.278Z,0.00
2018-07-10T00:30:41.794Z,0.00
2018-07-10T00:31:48.363Z,0.00
2018-07-10T00:32:54.841Z,0.00
2018-07-10T00:34:01.361Z,0.00
2018-07-10T00:35:07.878Z,0.00
2018-07-10T00:36:14.401Z,0.00
2018-07-10T00:37:20.933Z,0.00
2018-07-10T00:38:27.451Z,0.00
2018-07-10T00:39:33.979Z,0.00
2018-07-10T00:40:40.496Z,0.00
2018-07-10T00:41:47.023Z,0.00
2018-07-10T00:42:53.563Z,0.00
2018-07-10T00:44:00.081Z,0.00
2018-07-10T00:45:06.604Z,0.00
2018-07-10T00:46:13.134Z,0.00
2018-07-10T00:47:19.673Z,0.00
2018-07-10T00:48:26.193Z,0.00
2018-07-10T00:49:33.728Z,0.00
2018-07-10T00:50:39.755Z,0.00
2018-07-10T00:51:45.805Z,0.00
2018-07-10T00:52:52.339Z,0.00
2018-07-10T00:53:59.866Z,0.00
2018-07-10T00:55:06.405Z,0.00
2018-07-10T00:56:11.937Z,0.00
2018-07-10T00:57:18.468Z,0.00
2018-07-10T00:58:25.010Z,0.00
2018-07-10T00:59:31.528Z,0.00
2018-07-10T01:00:39.055Z,0.00
2018-07-10T01:01:44.592Z,0.00
2018-07-10T01:02:51.116Z,0.00
2018-07-10T01:03:57.642Z,0.00
2018-07-10T01:05:04.159Z,0.00
2018-07-10T01:06:10.685Z,0.00
2018-07-10T01:07:17.206Z,0.00
2018-07-10T01:08:23.737Z,0.00
2018-07-10T01:09:30.259Z,0.00
2018-07-10T01:10:36.775Z,0.00
2018-07-10T01:11:44.294Z,0.00
2018-07-10T01:12:49.811Z,0.00
2018-07-10T01:13:56.339Z,0.00
2018-07-10T01:15:02.855Z,0.00
2018-07-10T01:16:10.364Z,0.00
2018-07-10T01:17:15.892Z,0.00
2018-07-10T01:18:22.426Z,0.00
2018-07-10T01:19:28.947Z,0.00
2018-07-10T01:20:35.465Z,0.00
2018-07-10T01:21:41.989Z,0.00
2018-07-10T01:22:48.519Z,0.00
2018-07-10T01:23:55.041Z,0.00
2018-07-10T01:25:01.555Z,0.00
2018-07-10T01:26:08.067Z,0.00
2018-07-10T01:27:15.594Z,0.00
2018-07-10T01:28:21.117Z,0.00
2018-07-10T01:29:27.647Z,0.00
2018-07-10T01:30:34.154Z,0.00
2018-07-10T01:31:40.679Z,0.00
2018-07-10T01:32:47.197Z,0.00
2018-07-10T01:33:53.727Z,0.00
2018-07-10T01:35:00.252Z,0.00
2018-07-10T01:36:06.755Z,0.00
2018-07-10T01:37:14.276Z,0.00
2018-07-10T01:38:19.795Z,0.00
2018-07-10T01:39:26.317Z,0.00
2018-07-10T01:40:32.912Z,0.00
2018-07-10T01:41:39.350Z,0.00
2018-07-10T01:42:45.869Z,0.00
2018-07-10T01:43:53.369Z,0.00
2018-07-10T01:44:58.901Z,0.00
2018-07-10T01:46:05.409Z,0.00
2018-07-10T01:47:11.918Z,0.00
2018-07-10T01:48:18.439Z,0.00
2018-07-10T01:49:24.954Z,0.00
2018-07-10T01:50:31.467Z,0.00
2018-07-10T01:51:37.987Z,0.00
2018-07-10T01:52:44.486Z,0.00
2018-07-10T01:53:51.003Z,0.00
2018-07-10T01:54:57.510Z,0.00
2018-07-10T01:56:04.019Z,0.00
2018-07-10T01:57:10.525Z,0.00
2018-07-10T01:58:17.046Z,0.00
2018-07-10T01:59:23.607Z,0.00
2018-07-10T02:00:30.050Z,0.00
2018-07-10T02:01:36.554Z,0.00
2018-07-10T02:02:43.060Z,0.00
2018-07-10T02:03:49.580Z,0.00
2018-07-10T02:04:56.079Z,0.00
2018-07-10T02:06:02.585Z,0.00
2018-07-10T02:07:10.094Z,0.00
2018-07-10T02:08:15.602Z,0.00
2018-07-10T02:09:22.111Z,0.00
2018-07-10T02:10:28.625Z,0.00
2018-07-10T02:11:35.127Z,0.00
2018-07-10T02:12:41.639Z,0.00
2018-07-10T02:13:48.148Z,0.00
2018-07-10T02:14:55.659Z,0.00
2018-07-10T02:16:01.174Z,0.00
2018-07-10T02:17:07.685Z,0.00
2018-07-10T02:18:14.193Z,0.00
2018-07-10T02:19:20.702Z,0.00
2018-07-10T02:20:27.219Z,0.00
2018-07-10T02:21:33.723Z,0.00
2018-07-10T02:22:40.232Z,0.00
2018-07-10T02:23:46.737Z,0.00
2018-07-10T02:24:53.253Z,0.00
2018-07-10T02:25:59.755Z,0.00
2018-07-10T02:27:06.277Z,0.00
2018-07-10T02:28:13.770Z,0.00
2018-07-10T02:29:19.290Z,0.00
2018-07-10T02:30:25.812Z,0.00
2018-07-10T02:31:32.302Z,0.00
2018-07-10T02:32:38.816Z,0.00
2018-07-10T02:33:45.326Z,0.00
2018-07-10T02:34:51.837Z,0.00
2018-07-10T02:35:58.345Z,0.00
2018-07-10T02:37:04.851Z,0.00
2018-07-10T02:38:11.351Z,0.00
2018-07-10T02:39:17.868Z,0.00
2018-07-10T02:40:24.365Z,0.00
2018-07-10T02:41:30.880Z,0.00
2018-07-10T02:42:37.365Z,0.00
2018-07-10T02:43:43.880Z,0.00
2018-07-10T02:44:50.384Z,0.00
2018-07-10T02:45:56.899Z,0.00
2018-07-10T02:47:03.390Z,0.00
2018-07-10T02:48:09.901Z,4.00
2018-07-10T02:49:16.401Z,4.00
2018-07-10T02:50:22.905Z,4.00
2018-07-10T02:51:29.399Z,4.00
2018-07-10T02:52:35.902Z,4.00
2018-07-10T02:53:42.397Z,4.00
2018-07-10T02:54:48.899Z,8.00
2018-07-10T02:55:55.389Z,8.00
2018-07-10T02:57:01.893Z,8.00
2018-07-10T02:58:08.382Z,12.00
2018-07-10T02:59:14.875Z,8.00
2018-07-10T03:00:21.374Z,12.00
2018-07-10T03:01:27.864Z,8.00
2018-07-10T03:02:34.342Z,12.00
2018-07-10T03:03:41.037Z,12.00
2018-07-10T03:04:48.335Z,8.00
2018-07-10T03:05:53.836Z,8.00
2018-07-10T03:07:00.325Z,4.00
2018-07-10T03:08:07.805Z,4.00
2018-07-10T03:09:13.310Z,8.00
2018-07-10T03:10:19.807Z,20.00
2018-07-10T03:11:27.297Z,28.00
2018-07-10T03:12:32.888Z,28.00
2018-07-10T03:13:40.285Z,28.00
2018-07-10T03:14:45.782Z,36.00
2018-07-10T03:15:52.286Z,44.00
2018-07-10T03:16:58.776Z,36.00
2018-07-10T03:18:05.267Z,40.00
2018-07-10T03:19:11.767Z,64.00
2018-07-10T03:20:19.261Z,100.00
2018-07-10T03:21:24.758Z,128.00
2018-07-10T03:22:31.256Z,124.00
2018-07-10T03:23:37.763Z,116.00
2018-07-10T03:24:44.233Z,104.00
2018-07-10T03:25:50.731Z,96.00
2018-07-10T03:26:57.212Z,96.00
2018-07-10T03:28:03.705Z,100.00
2018-07-10T03:29:10.209Z,96.00
2018-07-10T03:30:16.703Z,108.00
2018-07-10T03:31:23.195Z,120.00
2018-07-10T03:32:29.688Z,136.00
2018-07-10T03:33:36.167Z,152.00
2018-07-10T03:34:42.661Z,180.00
2018-07-10T03:35:49.349Z,216.00
2018-07-10T03:36:55.645Z,232.00
2018-07-10T03:38:02.125Z,236.00
2018-07-10T03:39:08.623Z,268.00
2018-07-10T03:40:15.108Z,404.00
2018-07-10T03:41:22.596Z,564.00
2018-07-10T03:42:28.077Z,648.00
2018-07-10T03:43:34.558Z,664.00
2018-07-10T03:44:41.058Z,688.00
2018-07-10T03:45:47.529Z,776.00
2018-07-10T03:46:53.999Z,852.00
2018-07-10T03:48:00.482Z,964.00
2018-07-10T03:49:06.971Z,1124.00
2018-07-10T03:50:13.440Z,1276.00
2018-07-10T03:51:19.919Z,1220.00
2018-07-10T03:52:27.395Z,936.00
2018-07-10T03:53:32.866Z,656.00
2018-07-10T03:54:39.345Z,512.00
2018-07-10T03:55:46.901Z,460.00
2018-07-10T03:56:52.315Z,448.00
2018-07-10T03:57:58.789Z,472.00
2018-07-10T03:59:05.255Z,520.00
2018-07-10T04:00:11.727Z,616.00
2018-07-10T04:01:18.209Z,692.00
2018-07-10T04:02:24.682Z,732.00
2018-07-10T04:03:31.148Z,844.00
2018-07-10T04:04:37.623Z,940.00
2018-07-10T04:05:44.100Z,988.00
2018-07-10T04:06:50.569Z,1032.00
2018-07-10T04:07:57.019Z,1120.00
2018-07-10T04:09:03.552Z,1216.00
2018-07-10T04:10:09.967Z,1340.00
2018-07-10T04:11:16.431Z,1344.00
2018-07-10T04:12:22.882Z,1272.00
2018-07-10T04:13:29.364Z,1064.00
2018-07-10T04:14:35.817Z,956.00
2018-07-10T04:15:42.282Z,992.00
2018-07-10T04:16:48.743Z,1032.00
2018-07-10T04:17:55.215Z,872.00
2018-07-10T04:19:01.694Z,656.00
2018-07-10T04:20:08.116Z,580.00
2018-07-10T04:21:15.573Z,568.00
2018-07-10T04:22:21.020Z,588.00
2018-07-10T04:23:27.477Z,608.00
2018-07-10T04:24:33.924Z,640.00
2018-07-10T04:25:40.371Z,752.00
2018-07-10T04:26:46.941Z,900.00
2018-07-10T04:27:53.268Z,972.00
2018-07-10T04:28:59.854Z,1084.00
2018-07-10T04:30:06.181Z,1248.00
2018-07-10T04:31:12.636Z,1188.00
2018-07-10T04:32:19.078Z,1176.00
2018-07-10T04:33:25.514Z,1380.00
2018-07-10T04:34:31.972Z,1696.00
2018-07-10T04:35:38.614Z,1668.00
2018-07-10T04:36:44.866Z,1236.00
2018-07-10T04:37:51.300Z,1088.00
2018-07-10T04:38:57.763Z,1012.00
2018-07-10T04:40:04.193Z,944.00
2018-07-10T04:41:10.632Z,936.00
2018-07-10T04:42:17.147Z,1000.00
2018-07-10T04:43:23.526Z,1016.00
2018-07-10T04:44:29.971Z,1036.00
2018-07-10T04:45:36.405Z,1008.00
2018-07-10T04:46:43.871Z,1064.00
2018-07-10T04:47:49.295Z,1100.00
2018-07-10T04:48:55.753Z,1120.00
2018-07-10T04:50:02.678Z,1244.00
2018-07-10T04:51:08.618Z,1256.00
2018-07-10T04:52:15.064Z,1188.00
2018-07-10T04:53:21.519Z,1236.00
2018-07-10T04:54:27.962Z,1244.00
2018-07-10T04:55:34.406Z,1228.00
2018-07-10T04:56:40.928Z,1300.00
2018-07-10T04:57:47.273Z,1580.00
2018-07-10T04:58:53.709Z,2180.00
2018-07-10T05:00:00.147Z,2980.00
2018-07-10T05:01:06.589Z,3588.00
2018-07-10T05:02:13.041Z,3312.00
2018-07-10T05:03:19.476Z,2940.00
2018-07-10T05:04:25.930Z,2656.00
2018-07-10T05:05:32.377Z,2472.00
2018-07-10T05:06:38.902Z,2308.00
2018-07-10T05:07:45.261Z,2228.00
2018-07-10T05:08:51.728Z,1876.00
2018-07-10T05:09:58.152Z,1840.00
2018-07-10T05:11:04.587Z,2064.00
2018-07-10T05:12:11.103Z,2188.00
2018-07-10T05:13:17.477Z,1976.00
2018-07-10T05:14:23.915Z,2024.00
2018-07-10T05:15:30.391Z,2160.00
2018-07-10T05:16:36.896Z,2212.00
2018-07-10T05:17:43.287Z,2092.00
2018-07-10T05:18:49.687Z,1972.00
2018-07-10T05:19:56.125Z,2000.00
2018-07-10T05:21:02.565Z,2080.00
2018-07-10T05:22:09.010Z,2184.00
2018-07-10T05:23:15.461Z,2300.00
2018-07-10T05:24:21.898Z,2272.00
2018-07-10T05:25:28.337Z,2396.00
2018-07-10T05:26:34.784Z,2472.00
2018-07-10T05:27:41.222Z,2556.00
2018-07-10T05:28:47.734Z,2588.00
2018-07-10T05:29:54.110Z,2480.00
2018-07-10T05:31:01.557Z,2480.00
2018-07-10T05:32:07.009Z,2528.00
2018-07-10T05:33:13.457Z,2584.00
2018-07-10T05:34:19.897Z,2728.00
2018-07-10T05:35:26.370Z,2988.00
2018-07-10T05:36:32.933Z,3232.00
2018-07-10T05:37:39.258Z,3700.00
2018-07-10T05:38:45.674Z,4056.00
2018-07-10T05:39:52.134Z,3764.00
2018-07-10T05:40:59.079Z,2984.00
2018-07-10T05:42:05.037Z,2632.00
2018-07-10T05:43:11.480Z,2504.00
2018-07-10T05:44:17.924Z,2488.00
2018-07-10T05:45:24.378Z,2612.00
2018-07-10T05:46:31.909Z,2800.00
2018-07-10T05:47:37.262Z,3040.00
2018-07-10T05:48:43.704Z,3180.00
2018-07-10T05:49:50.153Z,3188.00
2018-07-10T05:50:56.606Z,3184.00
2018-07-10T05:52:03.065Z,3204.00
2018-07-10T05:53:09.492Z,3108.00
2018-07-10T05:54:16.436Z,3088.00
2018-07-10T05:55:22.398Z,3304.00
2018-07-10T05:56:28.920Z,3596.00
2018-07-10T05:57:35.286Z,3820.00
2018-07-10T05:58:41.783Z,3788.00
2018-07-10T05:59:48.180Z,3752.00
2018-07-10T06:00:54.638Z,3860.00
2018-07-10T06:02:01.097Z,4056.00
2018-07-10T06:03:07.858Z,4280.00
2018-07-10T06:04:14.014Z,4580.00
2018-07-10T06:05:20.469Z,4960.00
2018-07-10T06:06:26.928Z,5392.00
2018-07-10T06:07:33.387Z,5668.00
2018-07-10T06:08:39.845Z,5864.00
2018-07-10T06:09:46.322Z,6268.00
2018-07-10T06:10:52.761Z,6692.00
2018-07-10T06:11:59.225Z,6836.00
2018-07-10T06:13:05.707Z,6944.00
2018-07-10T06:14:12.159Z,7260.00
2018-07-10T06:15:18.633Z,7504.00
2018-07-10T06:16:25.113Z,7892.00
2018-07-10T06:17:31.585Z,8252.00
2018-07-10T06:18:38.057Z,8320.00
2018-07-10T06:19:44.522Z,8484.00
2018-07-10T06:20:50.988Z,9244.00
2018-07-10T06:21:57.465Z,9580.00
2018-07-10T06:23:03.961Z,9848.00
2018-07-10T06:24:10.430Z,9220.00
2018-07-10T06:25:16.922Z,8620.00
2018-07-10T06:26:23.400Z,8772.00
2018-07-10T06:27:29.900Z,9016.00
2018-07-10T06:28:36.376Z,10240.00
2018-07-10T06:29:42.866Z,11556.00
2018-07-10T06:30:49.338Z,12044.00
2018-07-10T06:31:55.834Z,12468.00
2018-07-10T06:33:02.348Z,13472.00
2018-07-10T06:34:08.830Z,14436.00
2018-07-10T06:35:15.352Z,14612.00
2018-07-10T06:36:21.855Z,13636.00
2018-07-10T06:37:28.377Z,13064.00
2018-07-10T06:38:34.899Z,13404.00
2018-07-10T06:39:41.429Z,13592.00
2018-07-10T06:40:47.948Z,13964.00
2018-07-10T06:41:54.471Z,14028.00
2018-07-10T06:43:01.014Z,13812.00
2018-07-10T06:44:08.549Z,13660.00
2018-07-10T06:45:14.089Z,13204.00
2018-07-10T06:46:20.699Z,13468.00
2018-07-10T06:47:27.175Z,13412.00
2018-07-10T06:48:33.770Z,12688.00
2018-07-10T06:49:40.253Z,12140.00
2018-07-10T06:50:46.773Z,12264.00
2018-07-10T06:51:53.313Z,12780.00
2018-07-10T06:53:00.026Z,12808.00
2018-07-10T06:54:06.381Z,12264.00
2018-07-10T06:55:12.902Z,12080.00
2018-07-10T06:56:19.423Z,11752.00
2018-07-10T06:57:25.959Z,10980.00
2018-07-10T06:58:32.480Z,9200.00
2018-07-10T06:59:39.488Z,7880.00
2018-07-10T07:00:45.581Z,6860.00
2018-07-10T07:01:52.016Z,6476.00
2018-07-10T07:02:58.518Z,6044.00
2018-07-10T07:04:05.024Z,6460.00
2018-07-10T07:05:11.510Z,7264.00
2018-07-10T07:06:17.996Z,6328.00
2018-07-10T07:07:24.484Z,6864.00
2018-07-10T07:08:30.975Z,6868.00
2018-07-10T07:09:37.457Z,6380.00
2018-07-10T07:10:43.934Z,6956.00
2018-07-10T07:11:50.408Z,8260.00
2018-07-10T07:12:56.885Z,8248.00
2018-07-10T07:14:03.383Z,10664.00
2018-07-10T07:15:09.862Z,10100.00
2018-07-10T07:16:16.344Z,9392.00
2018-07-10T07:17:22.848Z,9124.00
2018-07-10T07:18:29.349Z,8868.00
2018-07-10T07:19:35.862Z,9524.00
2018-07-10T07:20:42.354Z,8608.00
2018-07-10T07:21:48.929Z,8836.00
2018-07-10T07:22:55.380Z,11328.00
2018-07-10T07:24:01.897Z,8824.00
2018-07-10T07:25:08.408Z,7836.00
2018-07-10T07:26:14.924Z,9948.00
2018-07-10T07:27:21.458Z,11068.00
2018-07-10T07:28:27.993Z,11944.00
2018-07-10T07:29:34.526Z,8580.00
2018-07-10T07:30:41.043Z,7552.00
2018-07-10T07:31:47.584Z,8588.00
2018-07-10T07:32:54.113Z,11372.00
2018-07-10T07:34:00.642Z,14712.00
2018-07-10T07:35:07.269Z,14360.00
2018-07-10T07:36:13.715Z,14048.00
2018-07-10T07:37:20.263Z,14592.00
2018-07-10T07:38:26.927Z,14432.00
2018-07-10T07:39:33.391Z,14136.00
2018-07-10T07:40:39.936Z,14844.00
2018-07-10T07:41:46.520Z,16856.00
2018-07-10T07:42:54.111Z,19904.00
2018-07-10T07:43:59.809Z,19872.00
2018-07-10T07:45:06.239Z,17888.00
2018-07-10T07:46:12.840Z,16980.00
2018-07-10T07:47:19.429Z,16416.00
2018-07-10T07:48:26.017Z,15824.00
2018-07-10T07:49:32.634Z,15724.00
2018-07-10T07:50:39.231Z,15148.00
2018-07-10T07:51:45.819Z,14104.00
2018-07-10T07:52:52.419Z,12500.00
2018-07-10T07:53:59.029Z,12148.00
2018-07-10T07:55:05.617Z,13884.00
2018-07-10T07:56:12.211Z,16404.00
2018-07-10T07:57:18.816Z,16236.00
2018-07-10T07:58:25.662Z,14568.00
2018-07-10T07:59:32.017Z,14248.00
2018-07-10T08:00:38.608Z,17200.00
2018-07-10T08:01:45.232Z,17888.00
2018-07-10T08:02:51.840Z,18592.00
2018-07-10T08:03:58.481Z,20640.00
2018-07-10T08:05:05.110Z,21792.00
2018-07-10T08:06:11.744Z,22816.00
2018-07-10T08:07:18.400Z,23008.00
2018-07-10T08:08:25.050Z,22784.00
2018-07-10T08:09:31.732Z,22368.00
2018-07-10T08:10:38.411Z,22336.00
2018-07-10T08:11:45.179Z,20672.00
2018-07-10T08:12:51.779Z,18496.00
2018-07-10T08:13:58.461Z,17600.00
2018-07-10T08:15:05.179Z,17016.00
2018-07-10T08:16:12.898Z,17632.00
2018-07-10T08:17:18.544Z,17888.00
2018-07-10T08:18:25.226Z,18656.00
2018-07-10T08:19:31.926Z,19296.00
2018-07-10T08:20:38.619Z,20096.00
2018-07-10T08:21:45.307Z,20576.00
2018-07-10T08:22:51.991Z,20032.00
2018-07-10T08:23:59.686Z,19712.00
2018-07-10T08:25:05.393Z,19936.00
2018-07-10T08:26:12.083Z,20320.00
2018-07-10T08:27:18.774Z,20832.00
2018-07-10T08:28:25.478Z,20288.00
2018-07-10T08:29:32.212Z,20928.00
2018-07-10T08:30:38.900Z,21984.00
2018-07-10T08:31:45.623Z,21536.00
2018-07-10T08:32:52.346Z,20704.00
2018-07-10T08:33:59.086Z,20224.00
2018-07-10T08:35:05.778Z,19904.00
2018-07-10T08:36:12.496Z,19200.00
2018-07-10T08:37:19.202Z,18112.00
2018-07-10T08:38:25.929Z,17856.00
2018-07-10T08:39:32.636Z,18592.00
2018-07-10T08:40:39.335Z,19904.00
2018-07-10T08:41:46.060Z,21920.00
2018-07-10T08:42:52.748Z,23776.00
2018-07-10T08:43:59.475Z,24768.00
2018-07-10T08:45:06.185Z,25824.00
2018-07-10T08:46:12.907Z,26304.00
2018-07-10T08:47:19.647Z,26336.00
2018-07-10T08:48:26.390Z,26432.00
2018-07-10T08:49:33.136Z,26240.00
2018-07-10T08:50:39.942Z,26048.00
2018-07-10T08:51:46.656Z,25504.00
2018-07-10T08:52:53.415Z,25024.00
2018-07-10T08:54:00.198Z,24992.00
2018-07-10T08:55:06.972Z,25408.00
2018-07-10T08:56:13.751Z,25920.00
2018-07-10T08:57:20.525Z,24800.00
2018-07-10T08:58:27.312Z,23072.00
2018-07-10T08:59:34.112Z,21984.00
2018-07-10T09:00:40.877Z,20064.00
2018-07-10T09:01:47.642Z,18336.00
2018-07-10T09:02:54.401Z,16436.00
2018-07-10T09:04:01.150Z,15484.00
2018-07-10T09:05:07.906Z,15008.00
2018-07-10T09:06:14.643Z,14972.00
2018-07-10T09:07:21.365Z,14896.00
2018-07-10T09:08:28.089Z,15300.00
2018-07-10T09:09:34.919Z,15560.00
2018-07-10T09:10:41.539Z,16800.00
2018-07-10T09:11:48.259Z,17632.00
2018-07-10T09:12:55.263Z,18944.00
2018-07-10T09:14:01.759Z,20928.00
2018-07-10T09:15:08.405Z,23296.00
2018-07-10T09:16:15.135Z,24672.00
2018-07-10T09:17:21.870Z,24864.00
2018-07-10T09:18:28.623Z,24544.00
2018-07-10T09:19:35.368Z,23648.00
2018-07-10T09:20:42.137Z,23008.00
2018-07-10T09:21:48.918Z,23392.00
2018-07-10T09:22:55.638Z,24128.00
2018-07-10T09:24:02.394Z,25728.00
2018-07-10T09:25:09.157Z,26144.00
2018-07-10T09:26:15.913Z,25408.00
2018-07-10T09:27:22.672Z,26016.00
2018-07-10T09:28:29.425Z,26816.00
2018-07-10T09:29:36.204Z,27232.00
2018-07-10T09:30:42.975Z,27424.00
2018-07-10T09:31:49.740Z,27904.00
2018-07-10T09:32:56.511Z,26240.00
2018-07-10T09:34:03.296Z,26432.00
2018-07-10T09:35:10.090Z,26720.00
2018-07-10T09:36:16.864Z,24480.00
2018-07-10T09:37:23.663Z,24032.00
2018-07-10T09:38:30.440Z,22688.00
2018-07-10T09:39:37.217Z,22528.00
2018-07-10T09:40:44.005Z,22720.00
2018-07-10T09:41:50.758Z,22720.00
2018-07-10T09:42:57.535Z,24288.00
2018-07-10T09:44:04.393Z,25120.00
2018-07-10T09:45:11.087Z,26400.00
2018-07-10T09:46:17.863Z,24512.00
2018-07-10T09:47:24.747Z,26560.00
2018-07-10T09:48:31.451Z,29632.00
2018-07-10T09:49:38.253Z,31456.00
2018-07-10T09:50:45.067Z,28992.00
2018-07-10T09:51:51.885Z,29952.00
2018-07-10T09:52:58.720Z,27360.00
2018-07-10T09:54:05.743Z,26720.00
2018-07-10T09:55:12.392Z,27392.00
2018-07-10T09:56:19.227Z,26848.00
2018-07-10T09:57:26.056Z,26944.00
2018-07-10T09:58:32.892Z,26496.00
2018-07-10T09:59:39.744Z,27552.00
2018-07-10T10:00:46.609Z,29568.00
2018-07-10T10:01:53.487Z,29568.00
2018-07-10T10:03:00.345Z,25664.00
2018-07-10T10:04:07.208Z,22368.00
2018-07-10T10:05:15.057Z,24384.00
2018-07-10T10:06:20.899Z,24960.00
2018-07-10T10:07:27.739Z,25152.00
2018-07-10T10:08:34.576Z,25632.00
2018-07-10T10:09:41.406Z,26688.00
2018-07-10T10:10:48.235Z,25056.00
2018-07-10T10:11:55.061Z,26784.00
2018-07-10T10:13:01.902Z,27040.00
2018-07-10T10:14:08.712Z,26016.00
2018-07-10T10:15:15.727Z,25824.00
2018-07-10T10:16:22.347Z,25568.00
2018-07-10T10:17:29.171Z,25024.00
2018-07-10T10:18:35.985Z,24512.00
2018-07-10T10:19:42.918Z,24000.00
2018-07-10T10:20:49.626Z,23360.00
2018-07-10T10:21:56.437Z,23200.00
2018-07-10T10:23:03.247Z,22624.00
2018-07-10T10:24:10.050Z,23328.00
2018-07-10T10:25:16.860Z,24192.00
2018-07-10T10:26:23.654Z,22976.00
2018-07-10T10:27:30.448Z,24320.00
2018-07-10T10:28:37.245Z,24576.00
2018-07-10T10:29:44.044Z,24288.00
2018-07-10T10:30:50.848Z,23552.00
2018-07-10T10:31:57.639Z,20704.00
2018-07-10T10:33:04.460Z,16848.00
2018-07-10T10:34:11.247Z,16596.00
2018-07-10T10:35:18.032Z,17968.00
2018-07-10T10:36:25.289Z,15784.00
2018-07-10T10:37:31.560Z,16608.00
2018-07-10T10:38:38.348Z,17600.00
2018-07-10T10:39:45.064Z,19360.00
2018-07-10T10:40:51.822Z,19680.00
2018-07-10T10:41:58.582Z,18076.00
2018-07-10T10:43:05.312Z,18296.00
2018-07-10T10:44:12.063Z,17556.00
2018-07-10T10:45:18.902Z,15724.00
2018-07-10T10:46:25.541Z,15464.00
2018-07-10T10:47:33.260Z,15988.00
2018-07-10T10:48:38.994Z,16032.00
2018-07-10T10:49:45.703Z,14604.00
2018-07-10T10:50:52.431Z,13624.00
2018-07-10T10:51:59.134Z,13380.00
2018-07-10T10:53:05.838Z,14084.00
2018-07-10T10:54:12.542Z,15640.00
2018-07-10T10:55:19.243Z,17084.00
2018-07-10T10:56:25.952Z,18720.00
2018-07-10T10:57:32.663Z,21472.00
2018-07-10T10:58:39.381Z,23136.00
2018-07-10T10:59:46.115Z,23648.00
2018-07-10T11:00:52.871Z,26176.00
2018-07-10T11:01:59.612Z,28608.00
2018-07-10T11:03:06.383Z,30752.00
2018-07-10T11:04:13.165Z,30848.00
2018-07-10T11:05:19.951Z,28416.00
2018-07-10T11:06:26.766Z,26272.00
2018-07-10T11:07:33.564Z,26368.00
2018-07-10T11:08:40.387Z,27584.00
2018-07-10T11:09:47.196Z,28800.00
2018-07-10T11:10:54.016Z,28288.00
2018-07-10T11:12:00.844Z,26432.00
2018-07-10T11:13:07.707Z,24928.00
2018-07-10T11:14:14.475Z,25408.00
2018-07-10T11:15:21.317Z,32800.00
2018-07-10T11:16:28.160Z,32768.00
2018-07-10T11:17:35.021Z,38496.00
2018-07-10T11:18:41.903Z,36064.00
2018-07-10T11:19:48.900Z,40928.00
2018-07-10T11:20:55.708Z,72896.00
2018-07-10T11:22:02.650Z,75392.00
2018-07-10T11:23:09.616Z,51360.00
2018-07-10T11:24:16.607Z,58592.00
2018-07-10T11:25:23.587Z,34688.00
2018-07-10T11:26:30.566Z,40096.00
2018-07-10T11:27:37.529Z,78784.00
2018-07-10T11:28:44.520Z,38912.00
2018-07-10T11:29:51.517Z,43456.00
2018-07-10T11:30:58.521Z,32352.00
2018-07-10T11:32:05.511Z,28992.00
2018-07-10T11:33:12.495Z,33152.00
2018-07-10T11:34:19.458Z,42432.00
2018-07-10T11:35:26.442Z,31456.00
2018-07-10T11:36:33.404Z,30016.00
2018-07-10T11:37:40.350Z,23936.00
2018-07-10T11:38:47.303Z,22656.00
2018-07-10T11:39:54.218Z,23648.00
2018-07-10T11:41:01.127Z,30432.00
2018-07-10T11:42:08.044Z,106560.00
2018-07-10T11:43:14.996Z,124288.00
2018-07-10T11:44:22.063Z,127840.00
2018-07-10T11:45:29.239Z,136832.00
2018-07-10T11:46:36.521Z,107680.00
2018-07-10T11:47:43.857Z,137280.00
2018-07-10T11:48:51.276Z,112736.00
2018-07-10T11:49:58.745Z,53632.00
2018-07-10T11:51:06.149Z,40672.00
2018-07-10T11:52:13.502Z,40192.00
2018-07-10T11:53:20.778Z,40096.00
2018-07-10T11:54:28.012Z,40576.00
2018-07-10T11:55:35.221Z,37696.00
2018-07-10T11:56:42.395Z,25952.00
2018-07-10T11:57:49.509Z,23680.00
2018-07-10T11:58:56.615Z,26144.00
2018-07-10T12:00:03.665Z,32288.00
2018-07-10T12:01:10.716Z,39520.00
2018-07-10T12:02:17.757Z,42656.00
2018-07-10T12:03:25.291Z,41536.00
2018-07-10T12:04:31.837Z,39776.00
2018-07-10T12:05:39.180Z,59264.00
2018-07-10T12:06:45.947Z,35648.00
2018-07-10T12:07:52.987Z,33472.00
2018-07-10T12:09:00.082Z,30272.00
2018-07-10T12:10:07.074Z,26176.00
2018-07-10T12:11:14.091Z,21952.00
2018-07-10T12:12:21.107Z,18944.00
2018-07-10T12:13:28.086Z,16780.00
2018-07-10T12:14:35.040Z,15320.00
2018-07-10T12:15:41.995Z,15660.00
2018-07-10T12:16:48.941Z,17504.00
2018-07-10T12:17:55.867Z,19040.00
2018-07-10T12:19:02.776Z,19552.00
2018-07-10T12:20:09.681Z,19936.00
2018-07-10T12:21:16.575Z,21600.00
2018-07-10T12:22:23.488Z,24160.00
2018-07-10T12:23:30.394Z,26368.00
2018-07-10T12:24:37.293Z,27584.00
2018-07-10T12:25:44.186Z,28832.00
2018-07-10T12:26:52.098Z,33952.00
2018-07-10T12:27:58.061Z,50528.00
2018-07-10T12:29:04.956Z,97344.00
2018-07-10T12:30:12.007Z,78784.00
2018-07-10T12:31:19.121Z,50464.00
2018-07-10T12:32:26.233Z,36896.00
2018-07-10T12:33:33.320Z,33056.00
2018-07-10T12:34:40.379Z,32224.00
2018-07-10T12:35:47.440Z,33600.00
2018-07-10T12:36:54.662Z,33344.00
2018-07-10T12:38:01.494Z,30848.00
2018-07-10T12:39:08.496Z,29152.00
2018-07-10T12:40:15.491Z,28160.00
2018-07-10T12:41:22.473Z,28896.00
2018-07-10T12:42:29.447Z,31040.00
2018-07-10T12:43:36.410Z,32992.00
2018-07-10T12:44:43.384Z,32224.00
2018-07-10T12:45:50.355Z,29248.00
2018-07-10T12:46:57.340Z,27232.00
2018-07-10T12:48:04.289Z,26208.00
2018-07-10T12:49:11.233Z,25504.00
2018-07-10T12:50:18.176Z,24896.00
2018-07-10T12:51:25.095Z,25568.00
2018-07-10T12:52:32.038Z,27392.00
2018-07-10T12:53:38.940Z,28064.00
2018-07-10T12:54:45.871Z,26688.00
2018-07-10T12:55:52.780Z,25504.00
2018-07-10T12:56:59.707Z,24768.00
2018-07-10T12:58:06.621Z,23872.00
2018-07-10T12:59:13.529Z,22976.00
2018-07-10T13:00:20.432Z,22720.00
2018-07-10T13:01:27.330Z,22816.00
2018-07-10T13:02:34.235Z,23488.00
2018-07-10T13:03:42.119Z,24128.00
2018-07-10T13:04:48.019Z,24384.00
2018-07-10T13:05:54.917Z,23552.00
2018-07-10T13:07:01.812Z,21344.00
2018-07-10T13:08:08.683Z,19104.00
2018-07-10T13:09:16.565Z,17952.00
2018-07-10T13:10:23.431Z,17984.00
2018-07-10T13:11:29.281Z,18400.00
2018-07-10T13:12:36.149Z,18720.00
2018-07-10T13:13:42.975Z,19456.00
2018-07-10T13:14:49.818Z,20896.00
2018-07-10T13:15:56.655Z,22464.00
2018-07-10T13:17:03.491Z,24000.00
2018-07-10T13:18:10.320Z,25856.00
2018-07-10T13:19:17.164Z,28544.00
2018-07-10T13:20:24.016Z,32704.00
2018-07-10T13:21:30.867Z,35872.00
2018-07-10T13:22:37.754Z,35872.00
2018-07-10T13:23:44.663Z,31360.00
2018-07-10T13:24:51.520Z,27296.00
2018-07-10T13:25:58.406Z,23392.00
2018-07-10T13:27:06.300Z,19872.00
2018-07-10T13:28:12.158Z,17536.00
2018-07-10T13:29:19.031Z,15864.00
2018-07-10T13:30:25.886Z,15604.00
2018-07-10T13:31:32.713Z,16148.00
2018-07-10T13:32:39.539Z,16648.00
2018-07-10T13:33:46.352Z,17536.00